Time,TemperatureF,DewpointF,PressureIn,WindDirection,WindDirectionDegrees,WindSpeedMPH,WindSpeedGustMPH,Humidity,HourlyPrecipIn,Conditions,Clouds,dailyrainin,SoftwareType,DateUTC
2013-02-17 00:00:00,23.7,14.7,30.15,WNW,303,0.0,0.0,68,0.00,,BKN055,0.00,VWS V14.00,2013-02-17 05:00:00,
2013-02-17 00:10:00,23.7,15.0,30.15,WNW,296,1.0,3.0,69,0.00,,BKN055,0.00,VWS V14.00,2013-02-17 05:10:00,
2013-02-17 00:20:00,23.6,15.6,30.15,North,360,0.0,3.0,71,0.00,,BKN055,0.00,VWS V14.00,2013-02-17 05:20:00,
2013-02-17 00:30:00,23.5,15.5,30.15,NNW,340,0.0,3.0,71,0.00,,BKN055,0.00,VWS V14.00,2013-02-17 05:30:00,
2013-02-17 00:40:00,23.5,15.8,30.15,NW,321,1.0,3.0,72,0.00,,BKN055,0.00,VWS V14.00,2013-02-17 05:40:00,
2013-02-17 00:50:00,23.4,16.7,30.15,North,355,3.0,5.0,75,0.00,,BKN055,0.00,VWS V14.00,2013-02-17 05:50:00,
2013-02-17 01:00:00,23.4,16.7,30.15,NW,318,0.0,4.0,75,0.00,,BKN055,0.00,VWS V14.00,2013-02-17 06:00:00,
2013-02-17 01:10:00,23.4,17.0,30.15,NW,309,1.0,6.0,76,0.00,,BKN055,0.00,VWS V14.00,2013-02-17 06:10:00,
2013-02-17 01:20:00,23.4,17.0,30.15,NW,311,1.0,2.0,76,0.00,,BKN055,0.00,VWS V14.00,2013-02-17 06:20:00,
2013-02-17 01:30:00,23.4,17.3,30.15,NW,315,1.0,2.0,77,0.00,,BKN055,0.00,VWS V14.00,2013-02-17 06:30:00,
2013-02-17 01:40:00,23.3,17.2,30.16,NW,320,0.0,3.0,77,0.00,,BKN055,0.00,VWS V14.00,2013-02-17 06:40:00,
2013-02-17 01:50:00,23.3,17.2,30.15,NW,320,0.0,0.0,77,0.00,,BKN055,0.00,VWS V14.00,2013-02-17 06:50:00,
2013-02-17 02:00:00,23.3,17.2,30.15,NW,321,0.0,0.0,77,0.00,,BKN055,0.00,VWS V14.00,2013-02-17 07:00:00,
2013-02-17 02:10:00,23.4,17.6,30.15,NW,322,2.0,3.0,78,0.00,,BKN055,0.00,VWS V14.00,2013-02-17 07:10:00,
2013-02-17 02:20:00,23.1,17.6,30.15,West,273,4.0,5.0,79,0.00,,BKN055,0.00,VWS V14.00,2013-02-17 07:20:00,
2013-02-17 02:30:00,23.0,19.5,30.16,NW,325,0.0,4.0,86,0.00,,BKN055,0.00,VWS V14.00,2013-02-17 07:30:00,
2013-02-17 02:40:00,22.9,17.4,30.16,NW,311,0.0,3.0,79,0.00,,BKN055,0.00,VWS V14.00,2013-02-17 07:40:00,
2013-02-17 02:50:00,22.8,17.3,30.16,NW,311,0.0,2.0,79,0.00,,BKN055,0.00,VWS V14.00,2013-02-17 07:50:00,
2013-02-17 03:00:00,22.4,17.2,30.16,NW,311,1.0,2.0,80,0.00,,BKN055,0.00,VWS V14.00,2013-02-17 08:00:00,
2013-02-17 03:10:00,22.0,17.1,30.16,West,268,0.0,4.0,81,0.00,,BKN055,0.00,VWS V14.00,2013-02-17 08:10:00,
2013-02-17 03:20:00,22.0,17.1,30.16,West,273,0.0,4.0,81,0.00,,BKN055,0.00,VWS V14.00,2013-02-17 08:20:00,
2013-02-17 03:30:00,21.8,16.9,30.16,WNW,287,2.0,3.0,81,0.00,,BKN055,0.00,VWS V14.00,2013-02-17 08:30:00,
2013-02-17 03:40:00,21.7,16.8,30.16,WNW,286,0.0,3.0,81,0.00,,BKN055,0.00,VWS V14.00,2013-02-17 08:40:00,
2013-02-17 03:50:00,21.2,16.6,30.16,WNW,286,0.0,0.0,82,0.00,,BKN055,0.00,VWS V14.00,2013-02-17 08:50:00,
2013-02-17 04:00:00,20.6,16.3,30.16,WNW,286,0.0,2.0,83,0.00,,BKN055,0.00,VWS V14.00,2013-02-17 09:00:00,
2013-02-17 04:10:00,20.6,16.3,30.16,West,279,1.0,4.0,83,0.00,,BKN055,0.00,VWS V14.00,2013-02-17 09:10:00,
2013-02-17 04:20:00,20.3,16.2,30.16,West,265,0.0,3.0,84,0.00,,BKN055,0.00,VWS V14.00,2013-02-17 09:20:00,
2013-02-17 04:30:00,19.7,15.9,30.16,West,265,0.0,2.0,85,0.00,,BKN055,0.00,VWS V14.00,2013-02-17 09:30:00,
2013-02-17 04:40:00,19.1,15.3,30.17,NNW,346,3.0,3.0,85,0.00,,BKN055,0.00,VWS V14.00,2013-02-17 09:40:00,
2013-02-17 04:50:00,19.1,15.9,30.17,NNW,346,0.0,3.0,87,0.00,,BKN055,0.00,VWS V14.00,2013-02-17 09:50:00,
2013-02-17 05:00:00,19.4,16.4,30.17,NNW,346,0.0,1.0,88,0.00,,BKN055,0.00,VWS V14.00,2013-02-17 10:00:00,
2013-02-17 05:10:00,19.9,16.7,30.17,NNW,348,0.0,4.0,87,0.00,,BKN055,0.00,VWS V14.00,2013-02-17 10:10:00,
2013-02-17 05:20:00,20.3,16.8,30.18,NNW,348,0.0,2.0,86,0.00,,BKN055,0.00,VWS V14.00,2013-02-17 10:20:00,
2013-02-17 05:30:00,20.5,17.0,30.18,NNW,348,0.0,0.0,86,0.00,,BKN055,0.00,VWS V14.00,2013-02-17 10:30:00,
2013-02-17 05:40:00,20.7,17.2,30.18,NNW,348,0.0,2.0,86,0.00,,BKN055,0.00,VWS V14.00,2013-02-17 10:40:00,
2013-02-17 05:50:00,20.7,16.9,30.19,NNW,348,0.0,0.0,85,0.00,,BKN055,0.00,VWS V14.00,2013-02-17 10:50:00,
2013-02-17 06:00:00,20.7,16.6,30.19,NNW,348,0.0,0.0,84,0.00,,BKN055,0.00,VWS V14.00,2013-02-17 11:00:00,
2013-02-17 06:10:00,20.6,16.5,30.20,NNW,348,0.0,0.0,84,0.00,,BKN055,0.00,VWS V14.00,2013-02-17 11:10:00,
2013-02-17 06:20:00,20.5,16.4,30.20,NNW,348,0.0,0.0,84,0.00,,BKN055,0.00,VWS V14.00,2013-02-17 11:20:00,
2013-02-17 06:30:00,20.3,16.2,30.20,NNW,348,0.0,0.0,84,0.00,,BKN055,0.00,VWS V14.00,2013-02-17 11:30:00,
2013-02-17 06:40:00,19.9,16.1,30.20,NNW,348,0.0,0.0,85,0.00,,BKN055,0.00,VWS V14.00,2013-02-17 11:40:00,
2013-02-17 06:50:00,19.7,16.2,30.21,NNW,348,0.0,2.0,86,0.00,,BKN055,0.00,VWS V14.00,2013-02-17 11:50:00,
2013-02-17 07:00:00,19.6,16.4,30.22,NNW,348,0.0,0.0,87,0.00,,BKN055,0.00,VWS V14.00,2013-02-17 12:00:00,
2013-02-17 07:10:00,19.4,16.2,30.22,NNW,348,1.0,2.0,87,0.00,,BKN055,0.00,VWS V14.00,2013-02-17 12:10:00,
2013-02-17 07:20:00,19.1,15.6,30.22,North,349,0.0,3.0,86,0.00,,BKN055,0.00,VWS V14.00,2013-02-17 12:20:00,
2013-02-17 07:30:00,18.9,15.7,30.22,NNW,346,0.0,3.0,87,0.00,,BKN055,0.00,VWS V14.00,2013-02-17 12:30:00,
2013-02-17 07:40:00,18.5,15.0,30.23,NNW,347,0.0,0.0,86,0.00,,BKN055,0.00,VWS V14.00,2013-02-17 12:40:00,
2013-02-17 07:50:00,18.4,13.8,30.23,WNW,284,1.0,3.0,82,0.00,,BKN055,0.00,VWS V14.00,2013-02-17 12:50:00,
2013-02-17 08:00:00,18.4,13.6,30.23,WNW,291,1.0,3.0,81,0.00,,BKN055,0.00,VWS V14.00,2013-02-17 13:00:00,
2013-02-17 08:10:00,18.3,13.2,30.24,WNW,302,1.0,3.0,80,0.00,,BKN055,0.00,VWS V14.00,2013-02-17 13:10:00,
2013-02-17 08:20:00,18.3,13.5,30.24,NW,313,0.0,3.0,81,0.00,,BKN055,0.00,VWS V14.00,2013-02-17 13:20:00,
2013-02-17 08:30:00,18.7,14.1,30.24,NW,313,0.0,1.0,82,0.00,,BKN055,0.00,VWS V14.00,2013-02-17 13:30:00,
2013-02-17 08:40:00,19.2,13.5,30.25,North,5,2.0,5.0,78,0.00,,BKN055,0.00,VWS V14.00,2013-02-17 13:40:00,
2013-02-17 08:50:00,19.7,13.4,30.25,NNW,342,5.0,6.0,76,0.00,,BKN055,0.00,VWS V14.00,2013-02-17 13:50:00,
2013-02-17 09:00:00,20.2,13.2,30.26,NNW,338,3.0,7.0,74,0.00,,BKN055,0.00,VWS V14.00,2013-02-17 14:00:00,
2013-02-17 09:10:00,20.7,13.1,30.26,NNE,13,3.0,6.0,72,0.00,,BKN055,0.00,VWS V14.00,2013-02-17 14:10:00,
2013-02-17 09:20:00,21.1,13.5,30.27,NNW,331,2.0,7.0,72,0.00,,BKN055,0.00,VWS V14.00,2013-02-17 14:20:00,
2013-02-17 09:30:00,21.3,13.7,30.27,North,5,5.0,6.0,72,0.00,,BKN055,0.00,VWS V14.00,2013-02-17 14:30:00,
2013-02-17 09:40:00,22.0,13.4,30.27,NNW,338,3.0,7.0,69,0.00,,BKN055,0.00,VWS V14.00,2013-02-17 14:40:00,
2013-02-17 09:50:00,22.4,14.1,30.27,WNW,288,0.0,8.0,70,0.00,,BKN055,0.00,VWS V14.00,2013-02-17 14:50:00,
2013-02-17 10:00:00,23.0,14.4,30.27,WNW,298,3.0,7.0,69,0.00,,BKN055,0.00,VWS V14.00,2013-02-17 15:00:00,
2013-02-17 10:10:00,23.4,14.4,30.27,NE,46,4.0,6.0,68,0.00,,BKN055,0.00,VWS V14.00,2013-02-17 15:10:00,
2013-02-17 10:20:00,23.6,14.3,30.27,NNE,27,2.0,7.0,67,0.00,,BKN055,0.00,VWS V14.00,2013-02-17 15:20:00,
2013-02-17 10:30:00,23.6,13.2,30.27,WNW,282,1.0,7.0,64,0.00,,BKN055,0.00,VWS V14.00,2013-02-17 15:30:00,
2013-02-17 10:40:00,24.5,14.1,30.27,NE,55,3.0,5.0,64,0.00,,BKN055,0.00,VWS V14.00,2013-02-17 15:40:00,
2013-02-17 10:50:00,25.2,14.4,30.27,ENE,78,0.0,5.0,63,0.00,,BKN055,0.00,VWS V14.00,2013-02-17 15:50:00,
2013-02-17 11:00:00,25.9,15.1,30.28,SE,146,3.0,5.0,63,0.00,,BKN055,0.00,VWS V14.00,2013-02-17 16:00:00,
2013-02-17 11:10:00,26.1,13.8,30.27,East,84,1.0,4.0,59,0.00,,BKN055,0.00,VWS V14.00,2013-02-17 16:10:00,
2013-02-17 11:20:00,26.1,13.8,30.28,ESE,118,3.0,5.0,59,0.00,,BKN055,0.00,VWS V14.00,2013-02-17 16:20:00,
2013-02-17 11:30:00,26.3,13.1,30.28,SE,134,4.0,5.0,57,0.00,,BKN055,0.00,VWS V14.00,2013-02-17 16:30:00,
2013-02-17 11:40:00,26.7,13.9,30.28,SSW,207,0.0,5.0,58,0.00,,BKN055,0.00,VWS V14.00,2013-02-17 16:40:00,
2013-02-17 11:50:00,26.9,13.7,30.28,SSW,203,4.0,5.0,57,0.00,,BKN055,0.00,VWS V14.00,2013-02-17 16:50:00,
2013-02-17 12:00:00,27.2,14.0,30.27,SSW,205,0.0,4.0,57,0.00,,BKN055,0.00,VWS V14.00,2013-02-17 17:00:00,
2013-02-17 12:10:00,28.1,14.0,30.27,ESE,117,0.0,4.0,55,0.00,,BKN055,0.00,VWS V14.00,2013-02-17 17:10:00,
2013-02-17 12:20:00,28.1,13.6,30.27,SSW,198,0.0,4.0,54,0.00,,BKN055,0.00,VWS V14.00,2013-02-17 17:20:00,
2013-02-17 12:30:00,28.5,13.1,30.27,South,173,1.0,4.0,52,0.00,,BKN055,0.00,VWS V14.00,2013-02-17 17:30:00,
2013-02-17 12:40:00,28.8,14.3,30.27,SW,219,0.0,4.0,54,0.00,,BKN055,0.00,VWS V14.00,2013-02-17 17:40:00,
2013-02-17 12:50:00,29.2,13.8,30.26,South,187,0.0,5.0,52,0.00,,BKN055,0.00,VWS V14.00,2013-02-17 17:50:00,
2013-02-17 13:00:00,29.7,13.8,30.26,SSW,199,0.0,7.0,51,0.00,,BKN055,0.00,VWS V14.00,2013-02-17 18:00:00,
2013-02-17 13:10:00,30.1,13.3,30.25,South,188,1.0,5.0,49,0.00,,BKN055,0.00,VWS V14.00,2013-02-17 18:10:00,
2013-02-17 13:20:00,30.4,14.4,30.25,South,181,1.0,4.0,51,0.00,,BKN055,0.00,VWS V14.00,2013-02-17 18:20:00,
2013-02-17 13:30:00,30.9,14.5,30.25,South,171,2.0,6.0,50,0.00,,BKN055,0.00,VWS V14.00,2013-02-17 18:30:00,
2013-02-17 13:40:00,31.4,14.0,30.24,SE,145,1.0,6.0,48,0.00,,BKN055,0.00,VWS V14.00,2013-02-17 18:40:00,
2013-02-17 13:50:00,31.6,13.7,30.23,SSE,150,0.0,7.0,47,0.00,,BKN055,0.00,VWS V14.00,2013-02-17 18:50:00,
2013-02-17 14:00:00,32.1,14.2,30.23,SSW,192,1.0,5.0,47,0.00,,BKN055,0.00,VWS V14.00,2013-02-17 19:00:00,
2013-02-17 14:10:00,32.8,14.3,30.24,WSW,253,2.0,6.0,46,0.00,,BKN055,0.00,VWS V14.00,2013-02-17 19:10:00,
2013-02-17 14:20:00,33.1,13.6,30.23,SW,215,2.0,7.0,44,0.00,,BKN055,0.00,VWS V14.00,2013-02-17 19:20:00,
2013-02-17 14:30:00,33.4,16.3,30.23,SSW,198,5.0,6.0,49,0.00,,BKN055,0.00,VWS V14.00,2013-02-17 19:30:00,
2013-02-17 14:40:00,34.0,13.9,30.24,WSW,244,9.0,9.0,43,0.00,,BKN055,0.00,VWS V14.00,2013-02-17 19:40:00,
2013-02-17 14:50:00,34.3,15.7,30.23,SSW,203,2.0,10.0,46,0.00,,BKN055,0.00,VWS V14.00,2013-02-17 19:50:00,
2013-02-17 15:00:00,34.3,14.1,30.23,WSW,250,4.0,9.0,43,0.00,,BKN055,0.00,VWS V14.00,2013-02-17 20:00:00,
2013-02-17 15:10:00,34.4,10.2,30.23,West,273,10.0,13.0,36,0.00,,BKN055,0.00,VWS V14.00,2013-02-17 20:10:00,
2013-02-17 15:20:00,33.7,10.2,30.23,SW,232,4.0,12.0,37,0.00,,BKN055,0.00,VWS V14.00,2013-02-17 20:20:00,
2013-02-17 15:30:00,34.3,10.8,30.23,WSW,257,3.0,12.0,37,0.00,,BKN055,0.00,VWS V14.00,2013-02-17 20:30:00,
2013-02-17 15:40:00,34.4,11.4,30.23,South,181,4.0,9.0,38,0.00,,BKN055,0.00,VWS V14.00,2013-02-17 20:40:00,
2013-02-17 15:50:00,34.8,10.6,30.22,WSW,242,4.0,10.0,36,0.00,,BKN055,0.00,VWS V14.00,2013-02-17 20:50:00,
2013-02-17 16:00:00,34.4,12.0,30.22,WNW,302,5.0,13.0,39,0.00,,BKN055,0.00,VWS V14.00,2013-02-17 21:00:00,
2013-02-17 16:10:00,34.6,11.0,30.22,WSW,244,2.0,9.0,37,0.00,,BKN055,0.00,VWS V14.00,2013-02-17 21:10:00,
2013-02-17 16:20:00,35.3,14.5,30.22,SSW,211,4.0,9.0,42,0.00,,BKN055,0.00,VWS V14.00,2013-02-17 21:20:00,
2013-02-17 16:30:00,35.5,11.8,30.22,WSW,256,1.0,7.0,37,0.00,,BKN055,0.00,VWS V14.00,2013-02-17 21:30:00,
2013-02-17 16:40:00,35.3,10.4,30.22,WSW,257,3.0,12.0,35,0.00,,BKN055,0.00,VWS V14.00,2013-02-17 21:40:00,
2013-02-17 16:50:00,35.2,10.3,30.21,WNW,300,3.0,9.0,35,0.00,,BKN055,0.00,VWS V14.00,2013-02-17 21:50:00,
2013-02-17 17:00:00,35.3,10.4,30.22,WSW,242,3.0,8.0,35,0.00,,BKN055,0.00,VWS V14.00,2013-02-17 22:00:00,
2013-02-17 17:10:00,35.4,10.5,30.22,West,259,3.0,6.0,35,0.00,,BKN055,0.00,VWS V14.00,2013-02-17 22:10:00,
2013-02-17 17:20:00,35.6,11.3,30.22,NW,325,0.0,5.0,36,0.00,,BKN055,0.00,VWS V14.00,2013-02-17 22:20:00,
2013-02-17 17:30:00,35.4,10.5,30.21,NW,309,5.0,6.0,35,0.00,,BKN055,0.00,VWS V14.00,2013-02-17 22:30:00,
2013-02-17 17:40:00,34.4,9.6,30.21,NW,310,1.0,5.0,35,0.00,,BKN055,0.00,VWS V14.00,2013-02-17 22:40:00,
2013-02-17 17:50:00,34.1,10.6,30.21,WNW,285,2.0,6.0,37,0.00,,BKN055,0.00,VWS V14.00,2013-02-17 22:50:00,
2013-02-17 18:00:00,33.3,11.6,30.22,NW,317,0.0,3.0,40,0.00,,BKN055,0.00,VWS V14.00,2013-02-17 23:00:00,
2013-02-17 18:10:00,32.4,11.9,30.21,NW,317,0.0,0.0,42,0.00,,BKN055,0.00,VWS V14.00,2013-02-17 23:10:00,
2013-02-17 18:20:00,31.3,10.3,30.21,NW,317,0.0,0.0,41,0.00,,BKN055,0.00,VWS V14.00,2013-02-17 23:20:00,
2013-02-17 18:30:00,30.5,10.7,30.22,NW,317,0.0,0.0,43,0.00,,BKN055,0.00,VWS V14.00,2013-02-17 23:30:00,
2013-02-17 18:40:00,30.0,12.7,30.21,NW,317,0.0,0.0,48,0.00,,BKN055,0.00,VWS V14.00,2013-02-17 23:40:00,
2013-02-17 18:50:00,29.4,14.4,30.21,NW,317,1.0,3.0,53,0.00,,BKN055,0.00,VWS V14.00,2013-02-17 23:50:00,
2013-02-17 19:00:00,28.8,14.3,30.21,NW,317,2.0,2.0,54,0.00,,BKN055,0.00,VWS V14.00,2013-02-18 00:00:00,
2013-02-17 19:10:00,28.3,14.6,30.21,NW,318,1.0,3.0,56,0.00,,BKN055,0.00,VWS V14.00,2013-02-18 00:10:00,
2013-02-17 19:20:00,27.4,16.5,30.21,NW,320,2.0,3.0,63,0.00,,BKN055,0.00,VWS V14.00,2013-02-18 00:20:00,
2013-02-17 19:30:00,27.0,13.8,30.21,NW,326,0.0,3.0,57,0.00,,BKN055,0.00,VWS V14.00,2013-02-18 00:30:00,
2013-02-17 19:40:00,26.7,14.3,30.21,NNW,327,1.0,3.0,59,0.00,,BKN055,0.00,VWS V14.00,2013-02-18 00:40:00,
2013-02-17 19:50:00,26.1,15.2,30.21,NW,326,0.0,2.0,63,0.00,,BKN055,0.00,VWS V14.00,2013-02-18 00:50:00,
2013-02-17 20:00:00,25.8,15.3,30.21,NNW,327,2.0,2.0,64,0.00,,BKN055,0.00,VWS V14.00,2013-02-18 01:00:00,
2013-02-17 20:10:00,25.7,15.2,30.21,NW,326,1.0,3.0,64,0.00,,BKN055,0.00,VWS V14.00,2013-02-18 01:10:00,
2013-02-17 20:20:00,25.2,16.1,30.21,NNW,327,0.0,1.0,68,0.00,,BKN055,0.00,VWS V14.00,2013-02-18 01:20:00,
2013-02-17 20:30:00,24.9,15.2,30.21,NW,326,0.0,0.0,66,0.00,,BKN055,0.00,VWS V14.00,2013-02-18 01:30:00,
2013-02-17 20:40:00,24.3,15.6,30.21,NNW,327,0.0,0.0,69,0.00,,BKN055,0.00,VWS V14.00,2013-02-18 01:40:00,
2013-02-17 20:50:00,24.0,15.0,30.21,NNW,328,3.0,3.0,68,0.00,,BKN055,0.00,VWS V14.00,2013-02-18 01:50:00,
2013-02-17 21:00:00,23.9,14.6,30.21,NNW,329,2.0,3.0,67,0.00,,BKN055,0.00,VWS V14.00,2013-02-18 02:00:00,
2013-02-17 21:10:00,23.5,14.8,30.21,NNW,329,2.0,3.0,69,0.00,,BKN055,0.00,VWS V14.00,2013-02-18 02:10:00,
2013-02-17 21:20:00,22.9,14.3,30.21,NNW,331,2.0,3.0,69,0.00,,BKN055,0.00,VWS V14.00,2013-02-18 02:20:00,
2013-02-17 21:30:00,22.4,14.4,30.21,NNW,331,1.0,3.0,71,0.00,,BKN055,0.00,VWS V14.00,2013-02-18 02:30:00,
2013-02-17 21:40:00,21.8,14.5,30.22,NNW,334,2.0,4.0,73,0.00,,BKN055,0.00,VWS V14.00,2013-02-18 02:40:00,
2013-02-17 21:50:00,21.6,14.3,30.22,NNW,334,3.0,3.0,73,0.00,,BKN055,0.00,VWS V14.00,2013-02-18 02:50:00,
2013-02-17 22:00:00,21.4,14.4,30.22,NNW,334,2.0,3.0,74,0.00,,BKN055,0.00,VWS V14.00,2013-02-18 03:00:00,
2013-02-17 22:10:00,21.2,14.2,30.22,NNW,336,3.0,4.0,74,0.00,,BKN055,0.00,VWS V14.00,2013-02-18 03:10:00,
2013-02-17 22:20:00,21.0,13.7,30.22,NNW,336,3.0,4.0,73,0.00,,BKN055,0.00,VWS V14.00,2013-02-18 03:20:00,
2013-02-17 22:30:00,20.9,13.9,30.22,NNW,336,3.0,4.0,74,0.00,,BKN055,0.00,VWS V14.00,2013-02-18 03:30:00,
2013-02-17 22:40:00,20.4,14.1,30.22,NNW,340,4.0,4.0,76,0.00,,BKN055,0.00,VWS V14.00,2013-02-18 03:40:00,
2013-02-17 22:50:00,20.2,13.9,30.22,NNW,332,2.0,4.0,76,0.00,,BKN055,0.00,VWS V14.00,2013-02-18 03:50:00,
2013-02-17 23:00:00,20.3,13.7,30.22,NNW,336,3.0,4.0,75,0.00,,BKN055,0.00,VWS V14.00,2013-02-18 04:00:00,
2013-02-17 23:10:00,20.1,14.1,30.21,NNW,336,3.0,5.0,77,0.00,,BKN055,0.00,VWS V14.00,2013-02-18 04:10:00,
2013-02-17 23:20:00,19.7,13.7,30.21,NNW,337,2.0,4.0,77,0.00,,BKN055,0.00,VWS V14.00,2013-02-18 04:20:00,
2013-02-17 23:30:00,19.7,13.7,30.21,NNW,340,3.0,4.0,77,0.00,,BKN055,0.00,VWS V14.00,2013-02-18 04:30:00,
2013-02-17 23:40:00,19.5,13.8,30.21,NNW,338,1.0,4.0,78,0.00,,BKN055,0.00,VWS V14.00,2013-02-18 04:40:00,
2013-02-17 23:50:00,19.3,13.6,30.21,NNW,338,3.0,4.0,78,0.00,,BKN055,0.00,VWS V14.00,2013-02-18 04:50:00,